createdAt,value
2019-04-07T00:00:27.755Z,71.93
2019-04-07T00:02:57.147Z,71.96
2019-04-07T00:05:26.629Z,71.76
2019-04-07T00:07:56.720Z,71.73
2019-04-07T00:10:26.308Z,72.35
2019-04-07T00:12:55.707Z,73.07
2019-04-07T00:15:25.827Z,73.11
2019-04-07T00:17:55.385Z,73.88
2019-04-07T00:20:25.339Z,74.23
2019-04-07T00:22:55.241Z,74.09
2019-04-07T00:25:25.112Z,75.13
2019-04-07T00:27:54.508Z,75.02
2019-04-07T00:30:23.920Z,75.10
2019-04-07T00:32:53.331Z,74.67
2019-04-07T00:35:29.116Z,74.35
2019-04-07T00:37:53.879Z,74.04
2019-04-07T00:40:23.971Z,74.80
2019-04-07T00:42:53.465Z,75.30
2019-04-07T00:45:22.880Z,75.35
2019-04-07T00:47:52.631Z,75.30
2019-04-07T00:50:22.103Z,75.08
2019-04-07T00:52:53.129Z,74.30
2019-04-07T00:55:23.021Z,73.79
2019-04-07T00:57:52.957Z,74.59
2019-04-07T01:00:24.435Z,74.57
2019-04-07T01:02:54.110Z,75.58
2019-04-07T01:05:34.145Z,75.98
2019-04-07T01:07:55.256Z,75.79
2019-04-07T01:10:24.736Z,75.98
2019-04-07T01:12:54.138Z,75.09
2019-04-07T01:15:24.063Z,75.37
2019-04-07T01:17:53.504Z,75.24
2019-04-07T01:20:22.930Z,75.47
2019-04-07T01:22:52.775Z,76.21
2019-04-07T01:25:22.566Z,76.42
2019-04-07T01:27:52.031Z,76.11
2019-04-07T01:30:21.532Z,75.75
2019-04-07T01:32:51.047Z,75.17
2019-04-07T01:35:21.270Z,75.20
2019-04-07T01:37:50.785Z,74.81
2019-04-07T01:40:20.204Z,74.61
2019-04-07T01:43:09.327Z,74.87
2019-04-07T01:45:58.821Z,75.88
2019-04-07T01:48:30.256Z,76.54
2019-04-07T01:51:07.309Z,77.16
2019-04-07T01:53:54.740Z,77.57
2019-04-07T01:56:26.279Z,77.17
2019-04-07T01:58:57.391Z,76.00
2019-04-07T02:01:31.372Z,75.80
2019-04-07T02:04:18.220Z,75.13
2019-04-07T02:06:58.230Z,75.74
2019-04-07T02:09:38.270Z,75.98
2019-04-07T02:12:25.905Z,76.96
2019-04-07T02:14:57.494Z,77.78
2019-04-07T02:17:28.604Z,77.57
2019-04-07T02:20:00.294Z,78.21
2019-04-07T02:22:31.356Z,77.23
2019-04-07T02:25:14.664Z,75.88
2019-04-07T02:28:02.343Z,75.04
2019-04-07T02:30:33.384Z,75.95
2019-04-07T02:33:14.556Z,77.46
2019-04-07T02:35:48.910Z,77.75
2019-04-07T02:38:20.859Z,77.61
2019-04-07T02:41:04.390Z,78.14
2019-04-07T02:43:51.797Z,78.22
2019-04-07T02:46:25.661Z,77.69
2019-04-07T02:49:02.589Z,77.67
2019-04-07T02:51:51.742Z,77.56
2019-04-07T02:54:25.198Z,77.35
2019-04-07T02:56:56.280Z,78.67
2019-04-07T02:59:27.400Z,79.07
2019-04-07T03:01:59.291Z,79.22
2019-04-07T03:04:48.792Z,79.01
2019-04-07T03:07:32.600Z,79.20
2019-04-07T03:10:04.408Z,79.95
2019-04-07T03:12:38.111Z,80.29
2019-04-07T03:15:24.942Z,81.28
2019-04-07T03:18:12.842Z,81.65
2019-04-07T03:20:43.921Z,77.93
2019-04-07T03:23:16.175Z,75.83
2019-04-07T03:26:02.521Z,75.74
2019-04-07T03:28:36.571Z,78.56
2019-04-07T03:31:24.387Z,79.95
2019-04-07T03:34:13.813Z,80.55
2019-04-07T03:37:19.351Z,80.59
2019-04-07T03:39:38.269Z,80.67
2019-04-07T03:42:25.691Z,79.07
2019-04-07T03:45:08.745Z,77.14
2019-04-07T03:50:44.841Z,76.40
2019-04-07T03:53:21.582Z,76.61
2019-04-07T03:55:53.451Z,76.84
2019-04-07T03:58:43.050Z,76.71
2019-04-07T04:01:30.943Z,77.78
2019-04-07T04:04:05.554Z,76.85
2019-04-07T04:06:53.438Z,77.23
2019-04-07T04:09:30.542Z,78.14
2019-04-07T04:12:17.118Z,77.97
2019-04-07T04:15:04.791Z,78.72
2019-04-07T04:17:34.671Z,77.47
2019-04-07T04:20:07.140Z,77.23
2019-04-07T04:22:36.539Z,77.43
2019-04-07T04:25:07.144Z,77.81
2019-04-07T04:27:36.967Z,78.26
2019-04-07T04:30:11.744Z,78.25
2019-04-07T04:32:41.582Z,77.89
2019-04-07T04:35:11.496Z,77.88
2019-04-07T04:37:47.590Z,79.32
2019-04-07T04:40:12.362Z,80.17
2019-04-07T04:42:42.086Z,80.28
2019-04-07T04:45:11.606Z,79.54
2019-04-07T04:47:41.059Z,78.66
2019-04-07T04:50:10.661Z,78.93
2019-04-07T04:52:40.833Z,79.12
2019-04-07T04:55:11.314Z,80.23
2019-04-07T04:57:40.867Z,79.55
2019-04-07T05:00:10.788Z,78.90
2019-04-07T05:02:40.199Z,78.36
2019-04-07T05:05:11.105Z,78.21
2019-04-07T05:07:50.066Z,78.69
2019-04-07T05:10:12.281Z,78.54
2019-04-07T05:12:42.025Z,78.57
2019-04-07T05:15:11.991Z,79.85
2019-04-07T05:17:42.076Z,78.94
2019-04-07T05:20:12.393Z,79.27
2019-04-07T05:22:42.160Z,79.43
2019-04-07T05:25:12.042Z,79.75
2019-04-07T05:27:41.662Z,79.44
2019-04-07T05:30:11.298Z,79.00
2019-04-07T05:32:41.040Z,78.87
2019-04-07T05:35:12.011Z,78.87
2019-04-07T05:37:41.791Z,78.75
2019-04-07T05:40:11.424Z,78.35
2019-04-07T05:42:40.860Z,78.34
2019-04-07T05:45:10.324Z,78.29
2019-04-07T05:47:43.671Z,78.69
2019-04-07T05:50:13.268Z,78.81
2019-04-07T05:52:43.308Z,78.83
2019-04-07T05:55:12.952Z,78.11
2019-04-07T05:57:43.104Z,76.11
2019-04-07T06:00:15.642Z,76.78
2019-04-07T06:02:45.573Z,77.22
2019-04-07T06:05:16.307Z,77.46
2019-04-07T06:07:47.018Z,77.40
2019-04-07T06:10:16.757Z,77.24
2019-04-07T06:12:47.925Z,77.19
2019-04-07T06:15:21.561Z,77.25
2019-04-07T06:17:49.092Z,77.16
2019-04-07T06:20:18.950Z,77.19
2019-04-07T06:22:52.707Z,77.10
2019-04-07T06:25:19.531Z,76.78
2019-04-07T06:27:49.033Z,76.55
2019-04-07T06:30:19.294Z,76.36
2019-04-07T06:32:48.773Z,76.35
2019-04-07T06:35:18.313Z,76.27
2019-04-07T06:37:47.792Z,76.25
2019-04-07T06:40:20.463Z,76.27
2019-04-07T06:42:48.869Z,76.06
2019-04-07T06:45:21.824Z,75.88
2019-04-07T06:48:07.752Z,75.52
2019-04-07T06:50:56.033Z,74.19
2019-04-07T06:53:22.099Z,73.73
2019-04-07T06:55:53.134Z,72.94
2019-04-07T06:58:24.343Z,72.27
2019-04-07T07:01:12.155Z,71.66
2019-04-07T07:03:58.550Z,71.64
2019-04-07T07:06:32.875Z,72.22
2019-04-07T07:09:09.495Z,72.26
2019-04-07T07:11:46.531Z,71.79
2019-04-07T07:14:41.424Z,71.80
2019-04-07T07:17:23.024Z,71.19
2019-04-07T07:20:10.489Z,71.14
2019-04-07T07:22:50.834Z,71.46
2019-04-07T07:25:20.454Z,71.10
2019-04-07T07:27:49.923Z,71.50
2019-04-07T07:30:20.306Z,71.19
2019-04-07T07:32:50.874Z,70.55
2019-04-07T07:35:20.373Z,70.83
2019-04-07T07:37:50.017Z,70.98
2019-04-07T07:40:19.481Z,70.77
2019-04-07T07:42:50.862Z,70.50
2019-04-07T07:45:20.115Z,69.37
2019-04-07T07:47:53.193Z,69.31
2019-04-07T07:50:20.625Z,69.48
2019-04-07T07:52:53.359Z,69.07
2019-04-07T07:55:21.914Z,69.05
2019-04-07T07:57:55.497Z,68.98
2019-04-07T08:00:22.470Z,68.94
2019-04-07T08:02:53.439Z,69.53
2019-04-07T08:05:23.863Z,69.76
2019-04-07T08:07:54.075Z,70.02
2019-04-07T08:10:25.364Z,69.59
2019-04-07T08:12:54.734Z,69.30
2019-04-07T08:15:29.699Z,68.83
2019-04-07T08:17:55.267Z,68.65
2019-04-07T08:20:24.723Z,68.98
2019-04-07T08:22:54.955Z,68.05
2019-04-07T08:25:25.067Z,67.87
2019-04-07T08:27:55.409Z,68.16
2019-04-07T08:30:25.025Z,67.78
2019-04-07T08:32:57.674Z,67.32
2019-04-07T08:35:25.764Z,66.87
2019-04-07T08:37:55.618Z,66.72
2019-04-07T08:40:25.264Z,67.18
2019-04-07T08:42:54.654Z,66.43
2019-04-07T08:45:24.066Z,65.84
2019-04-07T08:47:53.703Z,66.05
2019-04-07T08:50:27.228Z,65.99
2019-04-07T08:52:54.319Z,66.38
2019-04-07T08:55:23.751Z,66.55
2019-04-07T08:57:53.182Z,66.12
2019-04-07T09:00:24.928Z,66.46
2019-04-07T09:03:04.034Z,66.30
2019-04-07T09:05:29.037Z,65.63
2019-04-07T09:07:57.369Z,65.86
2019-04-07T09:10:33.237Z,65.16
2019-04-07T09:13:04.804Z,65.04
2019-04-07T09:15:35.126Z,64.48
2019-04-07T09:18:06.268Z,63.45
2019-04-07T09:20:55.107Z,63.03
2019-04-07T09:23:29.494Z,62.32
2019-04-07T09:26:16.083Z,61.93
2019-04-07T09:28:47.633Z,61.22
2019-04-07T09:31:19.590Z,60.98
2019-04-07T09:33:50.734Z,61.02
2019-04-07T09:36:28.530Z,61.04
2019-04-07T09:39:02.735Z,60.53
2019-04-07T09:41:48.596Z,60.99
2019-04-07T09:44:19.865Z,60.67
2019-04-07T09:46:57.428Z,61.36
2019-04-07T09:49:37.929Z,61.26
2019-04-07T09:52:25.713Z,61.24
2019-04-07T09:55:02.706Z,59.82
2019-04-07T09:57:40.900Z,60.34
2019-04-07T10:00:16.042Z,60.40
2019-04-07T10:02:55.924Z,59.72
2019-04-07T10:05:40.411Z,59.51
2019-04-07T10:08:19.073Z,59.03
2019-04-07T10:11:03.092Z,58.31
2019-04-07T10:16:32.963Z,56.24
2019-04-07T10:19:09.820Z,55.58
2019-04-07T10:21:41.656Z,52.80
2019-04-07T10:24:15.353Z,50.27
2019-04-07T10:26:58.835Z,45.83
2019-04-07T10:29:30.758Z,45.72
2019-04-07T10:32:02.396Z,45.06
2019-04-07T10:34:33.518Z,44.92
2019-04-07T10:37:13.460Z,43.39
2019-04-07T10:39:47.281Z,39.70
2019-04-07T10:42:18.998Z,37.57
2019-04-07T10:45:02.410Z,35.64
2019-04-07T10:47:42.269Z,35.01
2019-04-07T10:50:19.984Z,37.01
2019-04-07T10:52:57.964Z,39.76
2019-04-07T10:55:38.471Z,39.56
2019-04-07T10:58:15.371Z,42.01
2019-04-07T11:01:05.137Z,42.70
2019-04-07T11:03:53.973Z,44.43
2019-04-07T11:06:28.385Z,46.13
2019-04-07T11:09:08.822Z,45.84
2019-04-07T11:11:41.209Z,46.77
2019-04-07T11:14:14.966Z,47.23
2019-04-07T11:16:46.410Z,47.32
2019-04-07T11:19:20.772Z,47.65
2019-04-07T11:21:54.267Z,47.50
2019-04-07T11:24:41.763Z,46.86
2019-04-07T11:27:13.161Z,47.73
2019-04-07T11:29:46.757Z,48.38
2019-04-07T11:32:20.248Z,48.40
2019-04-07T11:35:09.564Z,48.61
2019-04-07T11:37:40.814Z,48.83
2019-04-07T11:40:14.986Z,48.00
2019-04-07T11:42:46.158Z,46.94
2019-04-07T11:45:20.778Z,47.67
2019-04-07T11:47:52.549Z,46.32
2019-04-07T11:50:23.763Z,46.65
2019-04-07T11:53:07.450Z,44.23
2019-04-07T11:55:45.318Z,43.26
2019-04-07T11:58:25.442Z,41.08
2019-04-07T12:01:14.257Z,41.19
2019-04-07T12:03:43.209Z,42.69
2019-04-07T12:06:16.817Z,42.79
2019-04-07T12:08:50.049Z,42.93
2019-04-07T12:11:27.677Z,44.29
2019-04-07T12:14:08.980Z,45.41
2019-04-07T12:16:49.273Z,45.74
2019-04-07T12:19:33.351Z,45.88
2019-04-07T12:22:14.262Z,45.09
2019-04-07T12:25:05.410Z,45.30
2019-04-07T12:27:46.211Z,45.32
2019-04-07T12:30:23.281Z,46.05
2019-04-07T12:33:00.393Z,45.99
2019-04-07T12:35:51.629Z,46.18
2019-04-07T12:38:21.006Z,46.05
2019-04-07T12:41:15.141Z,45.28
2019-04-07T12:43:56.200Z,46.21
2019-04-07T12:46:30.177Z,45.61
2019-04-07T12:49:10.372Z,46.58
2019-04-07T12:51:57.580Z,47.28
2019-04-07T12:54:41.364Z,46.60
2019-04-07T12:57:28.866Z,46.88
2019-04-07T13:00:15.732Z,47.54
2019-04-07T13:03:01.755Z,47.64
2019-04-07T13:05:44.677Z,47.73
2019-04-07T13:08:25.686Z,48.21
2019-04-07T13:10:56.772Z,48.46
2019-04-07T13:13:43.926Z,49.21
2019-04-07T13:16:26.253Z,48.96
2019-04-07T13:19:14.348Z,48.37
2019-04-07T13:22:00.808Z,48.89
2019-04-07T13:24:35.159Z,50.41
2019-04-07T13:27:06.379Z,50.71
2019-04-07T13:29:41.149Z,51.04
2019-04-07T13:32:40.211Z,50.87
2019-04-07T13:35:05.025Z,51.25
2019-04-07T13:37:36.725Z,51.17
2019-04-07T13:40:15.714Z,51.29
2019-04-07T13:42:47.662Z,51.87
2019-04-07T13:45:28.057Z,51.66
2019-04-07T13:48:08.950Z,52.76
2019-04-07T13:50:42.607Z,52.18
2019-04-07T13:53:14.484Z,52.24
2019-04-07T13:55:48.699Z,52.15
2019-04-07T13:58:20.737Z,51.50
2019-04-07T14:01:03.843Z,51.44
2019-04-07T14:03:47.014Z,51.05
2019-04-07T14:06:24.769Z,50.98
2019-04-07T14:09:13.754Z,51.11
2019-04-07T14:12:04.854Z,51.40
2019-04-07T14:14:42.562Z,50.80
2019-04-07T14:17:20.803Z,51.17
2019-04-07T14:20:08.928Z,51.21
2019-04-07T14:22:46.583Z,50.39
2019-04-07T14:25:18.053Z,50.01
2019-04-07T14:28:01.090Z,49.85
2019-04-07T14:30:35.460Z,49.95
2019-04-07T14:33:06.607Z,50.19
2019-04-07T14:35:41.022Z,50.42
2019-04-07T14:38:29.035Z,49.51
2019-04-07T14:41:06.454Z,49.43
2019-04-07T14:43:37.561Z,48.52
2019-04-07T14:46:14.511Z,48.22
2019-04-07T14:49:01.141Z,47.88
2019-04-07T14:51:45.036Z,48.14
2019-04-07T14:54:33.394Z,47.19
2019-04-07T14:57:07.336Z,46.62
2019-04-07T14:59:54.427Z,47.15
2019-04-07T15:02:24.735Z,47.42
2019-04-07T15:05:14.801Z,46.96
2019-04-07T15:08:02.235Z,46.46
2019-04-07T15:10:34.058Z,47.39
2019-04-07T15:13:07.610Z,47.52
2019-04-07T15:15:37.128Z,47.18
2019-04-07T15:18:08.123Z,47.63
2019-04-07T15:20:37.865Z,47.92
2019-04-07T15:23:07.355Z,47.81
2019-04-07T15:25:41.278Z,47.10
2019-04-07T15:28:09.343Z,47.43
2019-04-07T15:30:40.597Z,46.89
2019-04-07T15:33:11.870Z,47.25
2019-04-07T15:35:45.060Z,47.47
2019-04-07T15:38:12.659Z,48.00
2019-04-07T15:40:42.772Z,48.49
2019-04-07T15:43:12.572Z,48.60
2019-04-07T15:45:44.398Z,48.34
2019-04-07T15:48:13.677Z,48.27
2019-04-07T15:50:43.122Z,48.65
2019-04-07T15:53:14.379Z,48.98
2019-04-07T15:55:51.620Z,49.40
2019-04-07T15:58:15.889Z,50.25
2019-04-07T16:00:46.184Z,50.94
2019-04-07T16:03:16.944Z,51.15
2019-04-07T16:05:46.603Z,50.18
2019-04-07T16:08:16.245Z,51.06
2019-04-07T16:10:46.571Z,51.35
2019-04-07T16:13:16.160Z,51.97
2019-04-07T16:15:48.368Z,52.31
2019-04-07T16:18:16.955Z,52.98
2019-04-07T16:20:46.517Z,53.48
2019-04-07T16:23:18.335Z,53.24
2019-04-07T16:25:47.514Z,54.00
2019-04-07T16:28:17.075Z,53.97
2019-04-07T16:30:50.164Z,54.55
2019-04-07T16:33:17.621Z,54.04
2019-04-07T16:35:52.766Z,54.00
2019-04-07T16:38:18.151Z,53.62
2019-04-07T16:40:47.984Z,53.96
2019-04-07T16:43:18.932Z,54.12
2019-04-07T16:45:48.701Z,54.28
2019-04-07T16:48:18.109Z,54.32
2019-04-07T16:50:51.026Z,54.42
2019-04-07T16:53:18.735Z,54.35
2019-04-07T16:55:52.750Z,54.61
2019-04-07T16:58:19.402Z,54.89
2019-04-07T17:00:49.861Z,54.65
2019-04-07T17:03:19.357Z,54.60
2019-04-07T17:05:48.792Z,54.36
2019-04-07T17:08:21.107Z,54.36
2019-04-07T17:10:52.706Z,54.93
2019-04-07T17:13:30.581Z,54.96
2019-04-07T17:15:54.077Z,55.12
2019-04-07T17:18:36.730Z,55.00
2019-04-07T17:21:09.445Z,55.61
2019-04-07T17:23:39.970Z,55.63
2019-04-07T17:26:11.544Z,55.58
2019-04-07T17:28:44.497Z,55.84
2019-04-07T17:31:13.062Z,55.72
2019-04-07T17:33:42.723Z,55.78
2019-04-07T17:36:15.344Z,55.98
2019-04-07T17:38:53.780Z,55.76
2019-04-07T17:41:23.498Z,55.82
2019-04-07T17:43:59.356Z,55.44
2019-04-07T17:46:32.614Z,55.67
2019-04-07T17:49:04.534Z,56.14
2019-04-07T17:51:42.212Z,56.49
2019-04-07T17:54:17.433Z,56.36
2019-04-07T17:56:52.097Z,56.37
2019-04-07T17:59:40.150Z,56.18
2019-04-07T18:02:11.884Z,56.47
2019-04-07T18:04:45.982Z,56.71
2019-04-07T18:07:18.668Z,56.59
2019-04-07T18:09:51.359Z,56.16
2019-04-07T18:12:31.810Z,55.76
2019-04-07T18:15:19.100Z,56.22
2019-04-07T18:17:56.159Z,56.81
2019-04-07T18:20:40.480Z,57.74
2019-04-07T18:23:14.658Z,56.74
2019-04-07T18:25:50.655Z,56.84
2019-04-07T18:28:26.034Z,56.83
2019-04-07T18:31:13.274Z,56.12
2019-04-07T18:33:52.289Z,55.51
2019-04-07T18:36:39.370Z,56.43
2019-04-07T18:39:19.866Z,56.41
2019-04-07T18:42:02.090Z,56.75
2019-04-07T18:44:41.028Z,57.13
2019-04-07T18:47:37.018Z,58.23
2019-04-07T18:50:12.544Z,58.58
2019-04-07T18:52:44.548Z,59.26
2019-04-07T18:55:18.692Z,59.71
2019-04-07T18:57:49.762Z,59.61
2019-04-07T19:00:30.198Z,60.36
2019-04-07T19:03:05.718Z,60.87
2019-04-07T19:05:36.713Z,61.29
2019-04-07T19:08:23.149Z,61.60
2019-04-07T19:11:10.687Z,61.52
2019-04-07T19:13:39.242Z,62.28
2019-04-07T19:16:13.551Z,62.67
2019-04-07T19:18:58.550Z,63.05
2019-04-07T19:21:32.475Z,63.60
2019-04-07T19:24:12.964Z,63.85
2019-04-07T19:26:44.369Z,64.06
2019-04-07T19:29:22.793Z,64.16
2019-04-07T19:32:06.001Z,64.48
2019-04-07T19:34:36.954Z,64.79
2019-04-07T19:37:08.222Z,65.10
2019-04-07T19:39:44.961Z,65.15
2019-04-07T19:45:16.279Z,65.69
2019-04-07T19:47:49.928Z,65.95
2019-04-07T19:50:30.715Z,66.37
2019-04-07T19:53:13.721Z,66.80
2019-04-07T19:56:00.875Z,66.92
2019-04-07T19:58:48.651Z,66.99
2019-04-07T20:01:36.142Z,67.03
2019-04-07T20:04:10.234Z,67.09
2019-04-07T20:06:44.012Z,67.30
2019-04-07T20:09:15.080Z,67.55
2019-04-07T20:11:55.018Z,67.68
2019-04-07T20:14:26.297Z,67.78
2019-04-07T20:16:57.789Z,67.80
2019-04-07T20:19:45.347Z,67.94
2019-04-07T20:22:17.512Z,68.07
2019-04-07T20:25:09.538Z,68.29
2019-04-07T20:27:37.850Z,68.57
2019-04-07T20:30:15.565Z,68.64
2019-04-07T20:32:48.440Z,68.74
2019-04-07T20:35:35.022Z,68.79
2019-04-07T20:38:11.556Z,68.83
2019-04-07T20:40:46.477Z,69.15
2019-04-07T20:43:35.701Z,69.34
2019-04-07T20:46:13.126Z,69.67
2019-04-07T20:48:47.271Z,69.63
2019-04-07T20:51:22.141Z,69.73
2019-04-07T20:53:59.813Z,70.15
2019-04-07T20:56:46.217Z,70.73
2019-04-07T20:59:47.775Z,71.91
2019-04-07T21:02:25.045Z,73.55
2019-04-07T21:04:57.054Z,74.90
2019-04-07T21:07:31.398Z,74.46
2019-04-07T21:10:08.344Z,75.02
2019-04-07T21:12:53.529Z,75.80
2019-04-07T21:15:33.794Z,75.83
2019-04-07T21:18:08.321Z,76.02
2019-04-07T21:20:39.439Z,76.71
2019-04-07T21:23:28.688Z,77.25
2019-04-07T21:25:59.747Z,77.15
2019-04-07T21:28:36.846Z,77.36
2019-04-07T21:31:20.022Z,77.15
2019-04-07T21:34:08.999Z,77.47
2019-04-07T21:36:41.470Z,78.03
2019-04-07T21:39:23.079Z,77.93
2019-04-07T21:42:10.365Z,79.01
2019-04-07T21:44:47.676Z,79.30
2019-04-07T21:47:18.795Z,80.26
2019-04-07T21:49:53.574Z,80.71
2019-04-07T21:52:41.030Z,79.58
2019-04-07T21:55:27.244Z,79.85
2019-04-07T21:58:01.056Z,80.63
2019-04-07T22:00:32.929Z,80.41
2019-04-07T22:03:04.068Z,80.72
2019-04-07T22:05:35.129Z,80.75
2019-04-07T22:08:13.074Z,80.93
2019-04-07T22:10:38.130Z,80.44
2019-04-07T22:13:08.332Z,80.01
2019-04-07T22:15:47.407Z,79.50
2019-04-07T22:18:10.009Z,78.80
2019-04-07T22:20:39.496Z,78.03
2019-04-07T22:23:09.976Z,78.46
2019-04-07T22:25:51.228Z,78.47
2019-04-07T22:28:20.854Z,78.17
2019-04-07T22:30:52.064Z,77.79
2019-04-07T22:33:25.318Z,78.24
2019-04-07T22:35:53.294Z,78.37
2019-04-07T22:38:23.746Z,78.08
2019-04-07T22:40:54.297Z,78.09
2019-04-07T22:43:24.845Z,79.00
2019-04-07T22:46:04.215Z,79.32
2019-04-07T22:48:27.177Z,79.40
2019-04-07T22:50:56.649Z,79.56
2019-04-07T22:53:29.597Z,79.41
2019-04-07T22:55:57.207Z,78.70
2019-04-07T22:58:27.721Z,77.87
2019-04-07T23:00:57.228Z,77.85
2019-04-07T23:03:27.155Z,78.22
2019-04-07T23:05:57.495Z,77.95
2019-04-07T23:08:27.050Z,77.57
2019-04-07T23:10:56.452Z,77.78
2019-04-07T23:13:25.918Z,78.09
2019-04-07T23:16:07.327Z,78.67
2019-04-07T23:18:26.453Z,78.59
2019-04-07T23:20:55.865Z,79.15
2019-04-07T23:23:26.022Z,79.44
2019-04-07T23:25:55.686Z,79.65
2019-04-07T23:28:25.207Z,79.80
2019-04-07T23:30:54.939Z,79.81
2019-04-07T23:33:24.424Z,79.50
2019-04-07T23:35:53.844Z,79.43
2019-04-07T23:38:23.968Z,79.37
2019-04-07T23:40:53.589Z,79.20
2019-04-07T23:43:22.961Z,79.14
2019-04-07T23:45:52.395Z,78.97
2019-04-07T23:48:22.243Z,78.62
2019-04-07T23:50:52.019Z,79.15
2019-04-07T23:53:58.088Z,79.36
2019-04-07T23:56:27.538Z,79.72
2019-04-07T23:58:56.934Z,79.70
